»·PEaware :: N787FL L70-KFUL

N787FL :: L70-KFUL

FLIGHT INFORMATION

Flight Status: Arrived
Operator: Privately registered:
United States
More flights under this callsign
Pilot: Luis B. (14232)
Aircraft: CESSNA 172 SKYHAWK
(C172)
More flights by this aircraft type
Origin: L70 Agua Dulce
United States
Destination: KFUL Fullerton Mun
United States
More flights between these airports :: More routes between these airports
Route: +VNY V186 ADAMM V394 SLI
File this flight plan on PilotEdge
Remarks:
Altitude:
(Current/Filed)
7,000ft
Speed:
(Current/Filed)
100kts
Departed: 22-Aug-17 08:05 AM
Arrived: 22-Aug-17 08:59 AM
Distance/Time
Traveled:
41nm/0:53
Distance/Time
To Go:
Arrived

Flight Plot

Page will automatically refresh every two minutes.

Flight plan parsing failed; only flown route is shown


Map Options




Map Legend


Flown Route
Filed Route
Departure Airport
Arrival Airport
Navaid (VOR, NDB)
Fix

Horizontal Profiles

Position Reports

Time Latitude Longitude Heading Altitude Ground
Speed
22-Aug-17 08:03 34.503188 -118.314639 139 2664ft 0kts
22-Aug-17 08:04 34.503347 -118.314274 54 2664ft 7kts
22-Aug-17 08:05 34.506050 -118.309891 53 2664ft 20kts
22-Aug-17 08:06 34.507754 -118.307096 84 2664ft 0kts
22-Aug-17 08:07 34.507754 -118.307097 85 2664ft 0kts
22-Aug-17 08:08 34.507752 -118.306896 100 2664ft 3kts
22-Aug-17 08:09 34.503999 -118.312377 232 2666ft 67kts
22-Aug-17 08:10 34.492489 -118.333403 249 3173ft 80kts
22-Aug-17 08:11 34.506856 -118.348811 23 3687ft 83kts
22-Aug-17 08:12 34.522418 -118.327956 49 4194ft 84kts
22-Aug-17 08:13 34.516283 -118.306394 168 4681ft 85kts
22-Aug-17 08:14 34.499476 -118.323805 231 5172ft 84kts
22-Aug-17 08:15 34.485261 -118.346098 249 5646ft 86kts
22-Aug-17 08:16 34.500243 -118.357791 7 6035ft 89kts
22-Aug-17 08:17 34.519005 -118.340063 74 6433ft 91kts
22-Aug-17 08:18 34.503083 -118.333725 234 6826ft 90kts
22-Aug-17 08:19 34.489023 -118.358440 235 7215ft 90kts
22-Aug-17 08:20 34.471597 -118.388400 221 7044ft 122kts
22-Aug-17 08:21 34.441123 -118.403537 196 7070ft 119kts
22-Aug-17 08:22 34.409119 -118.416385 193 7079ft 119kts
22-Aug-17 08:23 34.378296 -118.428694 194 7046ft 115kts
22-Aug-17 08:24 34.347990 -118.440559 196 7048ft 115kts
22-Aug-17 08:25 34.318147 -118.453008 194 7046ft 114kts
22-Aug-17 08:26 34.288141 -118.464689 193 7046ft 114kts
22-Aug-17 08:27 34.258404 -118.476179 194 7046ft 114kts
22-Aug-17 08:28 34.229759 -118.486023 165 7036ft 111kts
22-Aug-17 08:29 34.214615 -118.455853 116 7047ft 109kts
22-Aug-17 08:30 34.201072 -118.423546 118 7046ft 109kts
22-Aug-17 08:31 34.189492 -118.389958 107 6996ft 111kts
22-Aug-17 08:32 34.180784 -118.354649 109 6991ft 110kts
22-Aug-17 08:33 34.171185 -118.319770 111 6917ft 112kts
22-Aug-17 08:34 34.160232 -118.283906 112 6440ft 117kts
22-Aug-17 08:35 34.148569 -118.247586 113 5962ft 119kts
22-Aug-17 08:36 34.137128 -118.211281 111 5482ft 120kts
22-Aug-17 08:37 34.125695 -118.175278 112 5043ft 119kts
22-Aug-17 08:38 34.115215 -118.139687 111 5015ft 110kts
22-Aug-17 08:39 34.105203 -118.105816 111 5018ft 108kts
22-Aug-17 08:40 34.095035 -118.072235 111 5018ft 108kts
22-Aug-17 08:41 34.084833 -118.038976 111 5018ft 108kts
22-Aug-17 08:42 34.074468 -118.005435 112 5018ft 108kts
22-Aug-17 08:43 34.064111 -117.972128 112 5018ft 108kts
22-Aug-17 08:44 34.053763 -117.938963 112 5018ft 108kts
22-Aug-17 08:45 34.038489 -117.910895 155 5019ft 107kts
22-Aug-17 08:46 34.011368 -117.897660 162 5017ft 108kts
22-Aug-17 08:47 33.982654 -117.888933 163 5018ft 108kts
22-Aug-17 08:48 33.953470 -117.880031 163 4842ft 116kts
22-Aug-17 08:49 33.925811 -117.871636 163 4269ft 92kts
22-Aug-17 08:50 33.902856 -117.865094 163 4017ft 83kts
22-Aug-17 08:51 33.877057 -117.858185 163 4042ft 112kts
22-Aug-17 08:52 33.867879 -117.828470 84 3950ft 116kts
22-Aug-17 08:53 33.872536 -117.793152 83 3400ft 108kts
22-Aug-17 08:54 33.884785 -117.765466 351 2989ft 93kts
22-Aug-17 08:55 33.895229 -117.789342 283 3042ft 98kts
22-Aug-17 08:56 33.902990 -117.823603 281 3030ft 113kts
22-Aug-17 08:57 33.894614 -117.857946 254 2773ft 99kts
22-Aug-17 08:58 33.889360 -117.884867 256 2265ft 72kts
22-Aug-17 08:59 33.884969 -117.908923 257 1851ft 71kts
22-Aug-17 09:00 33.881132 -117.931689 256 1254ft 69kts
22-Aug-17 09:01 33.877067 -117.953163 257 690ft 64kts
22-Aug-17 09:02 33.873346 -117.972923 256 179ft 60kts
22-Aug-17 09:03 33.871529 -117.981193 172 100ft 6kts
22-Aug-17 09:04 33.871328 -117.979024 79 100ft 3kts
22-Aug-17 09:05 33.871339 -117.978964 76 100ft 0kts

Navigation Log

Ident Type
Flight plan parsing failed, navigation log unavailable